sensor_id;sensor_type;location;lat;lon;timestamp;P1;durP1;ratioP1;P2;durP2;ratioP2
12556;SDS011;6344;49.932;8.308;2023-04-24T00:00:45;2.30;;;1.90;;
12556;SDS011;6344;49.932;8.308;2023-04-24T00:03:13;4.27;;;2.40;;
12556;SDS011;6344;49.932;8.308;2023-04-24T00:05:40;3.40;;;2.47;;
12556;SDS011;6344;49.932;8.308;2023-04-24T00:08:06;1.90;;;1.80;;
12556;SDS011;6344;49.932;8.308;2023-04-24T00:10:33;2.73;;;2.10;;
12556;SDS011;6344;49.932;8.308;2023-04-24T00:13:00;2.53;;;1.80;;
12556;SDS011;6344;49.932;8.308;2023-04-24T00:15:27;2.10;;;2.00;;
12556;SDS011;6344;49.932;8.308;2023-04-24T00:17:53;2.40;;;1.67;;
12556;SDS011;6344;49.932;8.308;2023-04-24T00:20:21;2.13;;;1.60;;
12556;SDS011;6344;49.932;8.308;2023-04-24T00:22:48;2.20;;;1.87;;
12556;SDS011;6344;49.932;8.308;2023-04-24T00:25:15;2.47;;;1.83;;
12556;SDS011;6344;49.932;8.308;2023-04-24T00:27:41;4.10;;;2.80;;
12556;SDS011;6344;49.932;8.308;2023-04-24T00:30:08;2.20;;;1.77;;
12556;SDS011;6344;49.932;8.308;2023-04-24T00:32:35;1.83;;;1.50;;
12556;SDS011;6344;49.932;8.308;2023-04-24T00:35:02;3.10;;;1.60;;
12556;SDS011;6344;49.932;8.308;2023-04-24T00:37:32;2.37;;;1.73;;
12556;SDS011;6344;49.932;8.308;2023-04-24T00:39:58;2.13;;;1.70;;
12556;SDS011;6344;49.932;8.308;2023-04-24T00:42:25;2.30;;;1.70;;
12556;SDS011;6344;49.932;8.308;2023-04-24T00:44:52;1.90;;;1.77;;
12556;SDS011;6344;49.932;8.308;2023-04-24T00:47:19;3.10;;;2.40;;
12556;SDS011;6344;49.932;8.308;2023-04-24T00:49:46;2.20;;;2.00;;
12556;SDS011;6344;49.932;8.308;2023-04-24T00:52:13;2.60;;;2.00;;
12556;SDS011;6344;49.932;8.308;2023-04-24T00:54:44;3.40;;;2.10;;
12556;SDS011;6344;49.932;8.308;2023-04-24T00:57:10;3.00;;;1.90;;
12556;SDS011;6344;49.932;8.308;2023-04-24T00:59:38;1.70;;;1.60;;
12556;SDS011;6344;49.932;8.308;2023-04-24T01:02:06;2.87;;;1.73;;
12556;SDS011;6344;49.932;8.308;2023-04-24T01:04:33;3.10;;;2.03;;
12556;SDS011;6344;49.932;8.308;2023-04-24T01:07:01;2.20;;;1.60;;
12556;SDS011;6344;49.932;8.308;2023-04-24T01:09:28;1.87;;;1.67;;
12556;SDS011;6344;49.932;8.308;2023-04-24T01:11:56;5.07;;;3.27;;
12556;SDS011;6344;49.932;8.308;2023-04-24T01:14:23;2.70;;;1.63;;
12556;SDS011;6344;49.932;8.308;2023-04-24T01:16:50;2.63;;;1.80;;
12556;SDS011;6344;49.932;8.308;2023-04-24T01:19:17;3.03;;;1.80;;
12556;SDS011;6344;49.932;8.308;2023-04-24T01:21:45;3.70;;;1.70;;
12556;SDS011;6344;49.932;8.308;2023-04-24T01:24:17;2.87;;;2.53;;
12556;SDS011;6344;49.932;8.308;2023-04-24T01:26:45;2.20;;;1.90;;
12556;SDS011;6344;49.932;8.308;2023-04-24T01:29:12;2.50;;;1.90;;
12556;SDS011;6344;49.932;8.308;2023-04-24T01:31:39;4.53;;;1.90;;
12556;SDS011;6344;49.932;8.308;2023-04-24T01:34:06;1.97;;;1.70;;
12556;SDS011;6344;49.932;8.308;2023-04-24T01:36:33;4.50;;;1.80;;
12556;SDS011;6344;49.932;8.308;2023-04-24T01:39:01;2.40;;;1.80;;
12556;SDS011;6344;49.932;8.308;2023-04-24T01:41:29;4.10;;;1.90;;
12556;SDS011;6344;49.932;8.308;2023-04-24T01:43:56;2.10;;;1.90;;
12556;SDS011;6344;49.932;8.308;2023-04-24T01:46:23;2.80;;;1.90;;
12556;SDS011;6344;49.932;8.308;2023-04-24T01:48:51;3.33;;;1.93;;
12556;SDS011;6344;49.932;8.308;2023-04-24T01:51:18;2.03;;;1.93;;
12556;SDS011;6344;49.932;8.308;2023-04-24T01:53:45;2.10;;;1.90;;
12556;SDS011;6344;49.932;8.308;2023-04-24T01:56:11;2.23;;;1.77;;
12556;SDS011;6344;49.932;8.308;2023-04-24T01:58:39;2.67;;;2.30;;
12556;SDS011;6344;49.932;8.308;2023-04-24T02:01:06;2.53;;;2.10;;
12556;SDS011;6344;49.932;8.308;2023-04-24T02:03:33;2.83;;;2.63;;
12556;SDS011;6344;49.932;8.308;2023-04-24T02:06:00;3.70;;;2.67;;
12556;SDS011;6344;49.932;8.308;2023-04-24T02:08:26;2.30;;;2.13;;
12556;SDS011;6344;49.932;8.308;2023-04-24T02:10:53;4.53;;;2.77;;
12556;SDS011;6344;49.932;8.308;2023-04-24T02:13:20;4.20;;;3.80;;
12556;SDS011;6344;49.932;8.308;2023-04-24T02:15:48;3.47;;;2.40;;
12556;SDS011;6344;49.932;8.308;2023-04-24T02:18:14;3.13;;;2.17;;
12556;SDS011;6344;49.932;8.308;2023-04-24T02:20:41;2.27;;;2.07;;
12556;SDS011;6344;49.932;8.308;2023-04-24T02:23:08;2.63;;;2.13;;
12556;SDS011;6344;49.932;8.308;2023-04-24T02:25:35;3.67;;;2.40;;
12556;SDS011;6344;49.932;8.308;2023-04-24T02:28:01;2.90;;;2.10;;
12556;SDS011;6344;49.932;8.308;2023-04-24T02:30:28;2.33;;;2.00;;
12556;SDS011;6344;49.932;8.308;2023-04-24T02:32:56;2.87;;;2.67;;
12556;SDS011;6344;49.932;8.308;2023-04-24T02:35:23;2.07;;;1.80;;
12556;SDS011;6344;49.932;8.308;2023-04-24T02:37:50;2.40;;;2.20;;
12556;SDS011;6344;49.932;8.308;2023-04-24T02:40:16;2.40;;;2.20;;
12556;SDS011;6344;49.932;8.308;2023-04-24T02:42:43;3.17;;;2.07;;
12556;SDS011;6344;49.932;8.308;2023-04-24T02:45:10;2.40;;;2.30;;
12556;SDS011;6344;49.932;8.308;2023-04-24T02:47:37;2.47;;;2.27;;
12556;SDS011;6344;49.932;8.308;2023-04-24T02:50:06;2.63;;;2.10;;
12556;SDS011;6344;49.932;8.308;2023-04-24T02:52:33;5.50;;;2.10;;
12556;SDS011;6344;49.932;8.308;2023-04-24T02:55:00;2.43;;;2.23;;
12556;SDS011;6344;49.932;8.308;2023-04-24T02:57:27;2.30;;;2.10;;
12556;SDS011;6344;49.932;8.308;2023-04-24T02:59:53;2.87;;;2.00;;
12556;SDS011;6344;49.932;8.308;2023-04-24T03:02:20;2.13;;;1.90;;
12556;SDS011;6344;49.932;8.308;2023-04-24T03:04:46;1.93;;;1.73;;
12556;SDS011;6344;49.932;8.308;2023-04-24T03:07:15;2.30;;;2.10;;
12556;SDS011;6344;49.932;8.308;2023-04-24T03:09:41;2.07;;;1.97;;
12556;SDS011;6344;49.932;8.308;2023-04-24T03:12:08;1.83;;;1.73;;
12556;SDS011;6344;49.932;8.308;2023-04-24T03:14:35;2.13;;;1.77;;
12556;SDS011;6344;49.932;8.308;2023-04-24T03:17:01;2.53;;;2.33;;
12556;SDS011;6344;49.932;8.308;2023-04-24T03:19:28;1.90;;;1.80;;
12556;SDS011;6344;49.932;8.308;2023-04-24T03:21:54;3.53;;;2.00;;
12556;SDS011;6344;49.932;8.308;2023-04-24T03:24:23;1.63;;;1.53;;
12556;SDS011;6344;49.932;8.308;2023-04-24T03:26:49;2.50;;;2.30;;
12556;SDS011;6344;49.932;8.308;2023-04-24T03:29:16;5.53;;;2.33;;
12556;SDS011;6344;49.932;8.308;2023-04-24T03:31:43;2.33;;;2.00;;
12556;SDS011;6344;49.932;8.308;2023-04-24T03:34:09;2.17;;;1.97;;
12556;SDS011;6344;49.932;8.308;2023-04-24T03:36:36;3.00;;;2.17;;
12556;SDS011;6344;49.932;8.308;2023-04-24T03:39:03;2.40;;;2.20;;
12556;SDS011;6344;49.932;8.308;2023-04-24T03:41:31;1.87;;;1.77;;
12556;SDS011;6344;49.932;8.308;2023-04-24T03:43:58;2.13;;;1.77;;
12556;SDS011;6344;49.932;8.308;2023-04-24T03:46:25;2.60;;;1.90;;
12556;SDS011;6344;49.932;8.308;2023-04-24T03:48:51;2.40;;;2.20;;
12556;SDS011;6344;49.932;8.308;2023-04-24T03:51:18;1.80;;;1.70;;
12556;SDS011;6344;49.932;8.308;2023-04-24T03:53:45;2.27;;;1.87;;
12556;SDS011;6344;49.932;8.308;2023-04-24T03:56:11;2.47;;;2.30;;
12556;SDS011;6344;49.932;8.308;2023-04-24T03:58:39;2.30;;;2.20;;
12556;SDS011;6344;49.932;8.308;2023-04-24T04:01:06;4.00;;;3.27;;
12556;SDS011;6344;49.932;8.308;2023-04-24T04:03:32;2.87;;;2.60;;
12556;SDS011;6344;49.932;8.308;2023-04-24T04:05:59;4.10;;;2.50;;
12556;SDS011;6344;49.932;8.308;2023-04-24T04:08:26;3.03;;;2.40;;
12556;SDS011;6344;49.932;8.308;2023-04-24T04:10:53;2.23;;;2.13;;
12556;SDS011;6344;49.932;8.308;2023-04-24T04:13:19;3.40;;;3.20;;
12556;SDS011;6344;49.932;8.308;2023-04-24T04:15:47;2.23;;;2.03;;
12556;SDS011;6344;49.932;8.308;2023-04-24T04:18:14;2.97;;;2.77;;
12556;SDS011;6344;49.932;8.308;2023-04-24T04:20:41;4.00;;;3.70;;
12556;SDS011;6344;49.932;8.308;2023-04-24T04:23:08;3.10;;;2.90;;
12556;SDS011;6344;49.932;8.308;2023-04-24T04:25:34;3.93;;;3.53;;
12556;SDS011;6344;49.932;8.308;2023-04-24T04:28:01;3.93;;;3.50;;
12556;SDS011;6344;49.932;8.308;2023-04-24T04:30:28;3.90;;;3.60;;
12556;SDS011;6344;49.932;8.308;2023-04-24T04:32:58;3.93;;;3.73;;
12556;SDS011;6344;49.932;8.308;2023-04-24T04:35:25;4.43;;;4.13;;
12556;SDS011;6344;49.932;8.308;2023-04-24T04:37:52;3.17;;;2.90;;
12556;SDS011;6344;49.932;8.308;2023-04-24T04:40:18;3.53;;;3.33;;
12556;SDS011;6344;49.932;8.308;2023-04-24T04:42:45;3.80;;;3.50;;
12556;SDS011;6344;49.932;8.308;2023-04-24T04:45:12;3.43;;;3.23;;
12556;SDS011;6344;49.932;8.308;2023-04-24T04:47:41;6.50;;;4.20;;
12556;SDS011;6344;49.932;8.308;2023-04-24T04:50:10;4.57;;;4.27;;
12556;SDS011;6344;49.932;8.308;2023-04-24T04:52:37;3.47;;;3.27;;
12556;SDS011;6344;49.932;8.308;2023-04-24T04:55:04;3.83;;;3.60;;
12556;SDS011;6344;49.932;8.308;2023-04-24T04:57:31;4.17;;;3.87;;
12556;SDS011;6344;49.932;8.308;2023-04-24T04:59:58;4.80;;;3.67;;
12556;SDS011;6344;49.932;8.308;2023-04-24T05:02:25;3.97;;;3.57;;
12556;SDS011;6344;49.932;8.308;2023-04-24T05:04:51;3.50;;;3.30;;
12556;SDS011;6344;49.932;8.308;2023-04-24T05:07:19;4.43;;;4.13;;
12556;SDS011;6344;49.932;8.308;2023-04-24T05:09:46;5.53;;;5.00;;
12556;SDS011;6344;49.932;8.308;2023-04-24T05:12:13;5.53;;;5.10;;
12556;SDS011;6344;49.932;8.308;2023-04-24T05:14:39;4.77;;;4.47;;
12556;SDS011;6344;49.932;8.308;2023-04-24T05:17:06;4.53;;;4.13;;
12556;SDS011;6344;49.932;8.308;2023-04-24T05:19:33;4.93;;;4.53;;
12556;SDS011;6344;49.932;8.308;2023-04-24T05:22:01;5.10;;;4.70;;
12556;SDS011;6344;49.932;8.308;2023-04-24T05:24:30;6.73;;;4.80;;
12556;SDS011;6344;49.932;8.308;2023-04-24T05:26:57;5.70;;;5.30;;
12556;SDS011;6344;49.932;8.308;2023-04-24T05:29:24;5.30;;;4.93;;
12556;SDS011;6344;49.932;8.308;2023-04-24T05:31:51;5.90;;;5.37;;
12556;SDS011;6344;49.932;8.308;2023-04-24T05:34:18;4.30;;;4.00;;
12556;SDS011;6344;49.932;8.308;2023-04-24T05:36:45;4.73;;;4.43;;
12556;SDS011;6344;49.932;8.308;2023-04-24T05:39:11;6.00;;;4.80;;
12556;SDS011;6344;49.932;8.308;2023-04-24T05:41:39;5.60;;;4.00;;
12556;SDS011;6344;49.932;8.308;2023-04-24T05:44:06;6.70;;;4.87;;
12556;SDS011;6344;49.932;8.308;2023-04-24T05:46:33;7.70;;;5.30;;
12556;SDS011;6344;49.932;8.308;2023-04-24T05:49:00;5.20;;;4.53;;
12556;SDS011;6344;49.932;8.308;2023-04-24T05:51:27;5.70;;;5.20;;
12556;SDS011;6344;49.932;8.308;2023-04-24T05:53:53;5.97;;;5.53;;
12556;SDS011;6344;49.932;8.308;2023-04-24T05:56:20;5.43;;;5.03;;
12556;SDS011;6344;49.932;8.308;2023-04-24T05:58:48;5.17;;;4.87;;
12556;SDS011;6344;49.932;8.308;2023-04-24T06:01:15;10.93;;;9.97;;
12556;SDS011;6344;49.932;8.308;2023-04-24T06:03:41;6.97;;;6.47;;
12556;SDS011;6344;49.932;8.308;2023-04-24T06:06:08;6.00;;;5.60;;
12556;SDS011;6344;49.932;8.308;2023-04-24T06:08:35;5.60;;;5.10;;
12556;SDS011;6344;49.932;8.308;2023-04-24T06:11:01;5.17;;;4.67;;
12556;SDS011;6344;49.932;8.308;2023-04-24T06:13:28;6.90;;;6.13;;
12556;SDS011;6344;49.932;8.308;2023-04-24T06:15:56;5.67;;;5.27;;
12556;SDS011;6344;49.932;8.308;2023-04-24T06:18:23;7.10;;;5.87;;
12556;SDS011;6344;49.932;8.308;2023-04-24T06:20:49;6.60;;;6.00;;
12556;SDS011;6344;49.932;8.308;2023-04-24T06:23:16;6.77;;;6.27;;
12556;SDS011;6344;49.932;8.308;2023-04-24T06:25:43;7.10;;;6.60;;
12556;SDS011;6344;49.932;8.308;2023-04-24T06:28:10;6.93;;;6.43;;
12556;SDS011;6344;49.932;8.308;2023-04-24T06:30:36;7.30;;;6.60;;
12556;SDS011;6344;49.932;8.308;2023-04-24T06:33:04;8.50;;;7.70;;
12556;SDS011;6344;49.932;8.308;2023-04-24T06:35:31;7.23;;;6.37;;
12556;SDS011;6344;49.932;8.308;2023-04-24T06:37:58;7.63;;;6.70;;
12556;SDS011;6344;49.932;8.308;2023-04-24T06:40:24;6.73;;;6.23;;
12556;SDS011;6344;49.932;8.308;2023-04-24T06:42:51;6.87;;;6.27;;
12556;SDS011;6344;49.932;8.308;2023-04-24T06:45:18;6.50;;;6.00;;
12556;SDS011;6344;49.932;8.308;2023-04-24T06:47:45;6.73;;;6.23;;
12556;SDS011;6344;49.932;8.308;2023-04-24T06:50:13;8.07;;;7.37;;
12556;SDS011;6344;49.932;8.308;2023-04-24T06:52:40;8.13;;;6.60;;
12556;SDS011;6344;49.932;8.308;2023-04-24T06:55:07;6.07;;;5.67;;
12556;SDS011;6344;49.932;8.308;2023-04-24T06:57:35;5.80;;;5.40;;
12556;SDS011;6344;49.932;8.308;2023-04-24T07:00:02;6.80;;;6.30;;
12556;SDS011;6344;49.932;8.308;2023-04-24T07:02:30;7.27;;;6.60;;
12556;SDS011;6344;49.932;8.308;2023-04-24T07:04:56;7.20;;;6.60;;
12556;SDS011;6344;49.932;8.308;2023-04-24T07:07:24;7.13;;;6.43;;
12556;SDS011;6344;49.932;8.308;2023-04-24T07:09:51;7.03;;;6.53;;
12556;SDS011;6344;49.932;8.308;2023-04-24T07:12:19;6.10;;;5.40;;
12556;SDS011;6344;49.932;8.308;2023-04-24T07:14:46;7.17;;;6.47;;
12556;SDS011;6344;49.932;8.308;2023-04-24T07:17:13;5.30;;;4.90;;
12556;SDS011;6344;49.932;8.308;2023-04-24T07:19:40;6.63;;;6.13;;
12556;SDS011;6344;49.932;8.308;2023-04-24T07:22:07;5.13;;;4.73;;
12556;SDS011;6344;49.932;8.308;2023-04-24T07:24:37;5.53;;;5.13;;
12556;SDS011;6344;49.932;8.308;2023-04-24T07:27:04;4.13;;;3.83;;
12556;SDS011;6344;49.932;8.308;2023-04-24T07:29:31;5.40;;;4.90;;
12556;SDS011;6344;49.932;8.308;2023-04-24T07:31:57;5.87;;;4.50;;
12556;SDS011;6344;49.932;8.308;2023-04-24T07:34:24;6.53;;;6.03;;
12556;SDS011;6344;49.932;8.308;2023-04-24T07:36:51;4.50;;;4.10;;
12556;SDS011;6344;49.932;8.308;2023-04-24T07:39:18;4.40;;;4.00;;
12556;SDS011;6344;49.932;8.308;2023-04-24T07:41:46;4.20;;;3.90;;
12556;SDS011;6344;49.932;8.308;2023-04-24T07:44:12;4.47;;;4.17;;
12556;SDS011;6344;49.932;8.308;2023-04-24T07:46:39;4.70;;;4.30;;
12556;SDS011;6344;49.932;8.308;2023-04-24T07:49:06;5.07;;;4.67;;
12556;SDS011;6344;49.932;8.308;2023-04-24T07:51:33;3.73;;;3.50;;
12556;SDS011;6344;49.932;8.308;2023-04-24T07:54:03;5.50;;;4.57;;
12556;SDS011;6344;49.932;8.308;2023-04-24T07:56:30;3.50;;;3.20;;
12556;SDS011;6344;49.932;8.308;2023-04-24T07:58:58;4.43;;;4.07;;
12556;SDS011;6344;49.932;8.308;2023-04-24T08:01:26;4.17;;;3.87;;
12556;SDS011;6344;49.932;8.308;2023-04-24T08:03:52;5.20;;;3.50;;
12556;SDS011;6344;49.932;8.308;2023-04-24T08:06:19;4.90;;;4.50;;
12556;SDS011;6344;49.932;8.308;2023-04-24T08:08:46;3.00;;;2.80;;
12556;SDS011;6344;49.932;8.308;2023-04-24T08:11:12;4.23;;;3.83;;
12556;SDS011;6344;49.932;8.308;2023-04-24T08:13:39;4.70;;;3.20;;
12556;SDS011;6344;49.932;8.308;2023-04-24T08:16:07;3.40;;;3.13;;
12556;SDS011;6344;49.932;8.308;2023-04-24T08:18:34;3.27;;;3.07;;
12556;SDS011;6344;49.932;8.308;2023-04-24T08:21:00;4.03;;;3.63;;
12556;SDS011;6344;49.932;8.308;2023-04-24T08:23:27;3.37;;;3.17;;
12556;SDS011;6344;49.932;8.308;2023-04-24T08:25:54;2.47;;;2.13;;
12556;SDS011;6344;49.932;8.308;2023-04-24T08:28:22;3.60;;;3.40;;
12556;SDS011;6344;49.932;8.308;2023-04-24T08:30:48;4.30;;;3.13;;
12556;SDS011;6344;49.932;8.308;2023-04-24T08:33:20;3.80;;;3.50;;
12556;SDS011;6344;49.932;8.308;2023-04-24T08:35:47;4.63;;;3.57;;
12556;SDS011;6344;49.932;8.308;2023-04-24T08:38:14;3.93;;;3.53;;
12556;SDS011;6344;49.932;8.308;2023-04-24T08:40:41;3.17;;;2.90;;
12556;SDS011;6344;49.932;8.308;2023-04-24T08:43:08;3.30;;;3.10;;
12556;SDS011;6344;49.932;8.308;2023-04-24T08:45:35;3.70;;;3.50;;
12556;SDS011;6344;49.932;8.308;2023-04-24T08:48:03;4.27;;;3.97;;
12556;SDS011;6344;49.932;8.308;2023-04-24T08:50:32;3.80;;;3.50;;
12556;SDS011;6344;49.932;8.308;2023-04-24T08:53:00;3.43;;;3.13;;
12556;SDS011;6344;49.932;8.308;2023-04-24T08:55:27;4.30;;;4.00;;
12556;SDS011;6344;49.932;8.308;2023-04-24T08:57:56;4.13;;;3.70;;
12556;SDS011;6344;49.932;8.308;2023-04-24T09:00:24;4.60;;;4.30;;
12556;SDS011;6344;49.932;8.308;2023-04-24T09:02:52;4.60;;;3.17;;
12556;SDS011;6344;49.932;8.308;2023-04-24T09:05:20;3.30;;;3.10;;
12556;SDS011;6344;49.932;8.308;2023-04-24T09:07:51;5.17;;;4.77;;
12556;SDS011;6344;49.932;8.308;2023-04-24T09:10:21;3.70;;;3.40;;
12556;SDS011;6344;49.932;8.308;2023-04-24T09:12:48;3.30;;;3.10;;
12556;SDS011;6344;49.932;8.308;2023-04-24T09:15:16;4.23;;;3.93;;
12556;SDS011;6344;49.932;8.308;2023-04-24T09:17:44;3.70;;;3.50;;
12556;SDS011;6344;49.932;8.308;2023-04-24T09:20:10;3.43;;;3.13;;
12556;SDS011;6344;49.932;8.308;2023-04-24T09:22:37;3.60;;;3.40;;
12556;SDS011;6344;49.932;8.308;2023-04-24T09:25:06;3.37;;;3.17;;
12556;SDS011;6344;49.932;8.308;2023-04-24T09:27:33;3.53;;;3.23;;
12556;SDS011;6344;49.932;8.308;2023-04-24T09:30:01;3.70;;;3.40;;
12556;SDS011;6344;49.932;8.308;2023-04-24T09:32:28;8.93;;;3.43;;
12556;SDS011;6344;49.932;8.308;2023-04-24T09:35:06;4.97;;;2.50;;
12556;SDS011;6344;49.932;8.308;2023-04-24T09:37:35;3.37;;;3.17;;
12556;SDS011;6344;49.932;8.308;2023-04-24T09:40:14;4.23;;;2.07;;
12556;SDS011;6344;49.932;8.308;2023-04-24T09:42:45;2.90;;;2.70;;
12556;SDS011;6344;49.932;8.308;2023-04-24T09:45:17;3.50;;;2.87;;
12556;SDS011;6344;49.932;8.308;2023-04-24T09:47:44;10.73;;;3.60;;
12556;SDS011;6344;49.932;8.308;2023-04-24T09:50:14;3.80;;;3.60;;
12556;SDS011;6344;49.932;8.308;2023-04-24T09:52:43;3.07;;;2.87;;
12556;SDS011;6344;49.932;8.308;2023-04-24T09:55:10;2.83;;;2.63;;
12556;SDS011;6344;49.932;8.308;2023-04-24T09:57:48;7.90;;;4.43;;
12556;SDS011;6344;49.932;8.308;2023-04-24T10:00:21;3.10;;;2.80;;
12556;SDS011;6344;49.932;8.308;2023-04-24T10:02:54;3.00;;;2.80;;
12556;SDS011;6344;49.932;8.308;2023-04-24T10:05:27;3.17;;;2.57;;
12556;SDS011;6344;49.932;8.308;2023-04-24T10:07:56;2.73;;;2.53;;
12556;SDS011;6344;49.932;8.308;2023-04-24T10:10:25;2.97;;;2.77;;
12556;SDS011;6344;49.932;8.308;2023-04-24T10:12:52;4.00;;;3.70;;
12556;SDS011;6344;49.932;8.308;2023-04-24T10:15:20;4.03;;;2.40;;
12556;SDS011;6344;49.932;8.308;2023-04-24T10:17:48;2.53;;;2.33;;
12556;SDS011;6344;49.932;8.308;2023-04-24T10:20:17;3.37;;;3.17;;
12556;SDS011;6344;49.932;8.308;2023-04-24T10:22:45;3.30;;;3.03;;
12556;SDS011;6344;49.932;8.308;2023-04-24T10:25:15;3.60;;;3.30;;
12556;SDS011;6344;49.932;8.308;2023-04-24T10:27:44;2.40;;;2.20;;
12556;SDS011;6344;49.932;8.308;2023-04-24T10:30:12;3.00;;;2.73;;
12556;SDS011;6344;49.932;8.308;2023-04-24T10:32:39;3.43;;;3.13;;
12556;SDS011;6344;49.932;8.308;2023-04-24T10:35:06;2.90;;;2.70;;
12556;SDS011;6344;49.932;8.308;2023-04-24T10:37:34;4.50;;;4.13;;
12556;SDS011;6344;49.932;8.308;2023-04-24T10:40:03;3.07;;;2.77;;
12556;SDS011;6344;49.932;8.308;2023-04-24T10:42:30;3.90;;;3.60;;
12556;SDS011;6344;49.932;8.308;2023-04-24T10:44:59;5.00;;;4.57;;
12556;SDS011;6344;49.932;8.308;2023-04-24T10:47:27;4.87;;;4.57;;
12556;SDS011;6344;49.932;8.308;2023-04-24T10:49:53;4.73;;;4.33;;
12556;SDS011;6344;49.932;8.308;2023-04-24T10:52:30;4.63;;;4.23;;
12556;SDS011;6344;49.932;8.308;2023-04-24T10:55:10;3.30;;;3.10;;
12556;SDS011;6344;49.932;8.308;2023-04-24T10:57:38;3.00;;;2.70;;
12556;SDS011;6344;49.932;8.308;2023-04-24T11:00:18;3.67;;;3.40;;
12556;SDS011;6344;49.932;8.308;2023-04-24T11:02:46;3.27;;;3.07;;
12556;SDS011;6344;49.932;8.308;2023-04-24T11:05:18;3.20;;;3.00;;
12556;SDS011;6344;49.932;8.308;2023-04-24T11:10:38;4.17;;;3.90;;
12556;SDS011;6344;49.932;8.308;2023-04-24T11:13:06;4.23;;;3.83;;
12556;SDS011;6344;49.932;8.308;2023-04-24T11:15:34;3.43;;;3.13;;
12556;SDS011;6344;49.932;8.308;2023-04-24T11:18:01;2.20;;;2.10;;
12556;SDS011;6344;49.932;8.308;2023-04-24T11:20:28;3.50;;;3.30;;
12556;SDS011;6344;49.932;8.308;2023-04-24T11:22:55;3.70;;;3.40;;
12556;SDS011;6344;49.932;8.308;2023-04-24T11:25:29;2.10;;;2.00;;
12556;SDS011;6344;49.932;8.308;2023-04-24T11:28:02;2.60;;;1.93;;
12556;SDS011;6344;49.932;8.308;2023-04-24T11:30:30;3.00;;;2.80;;
12556;SDS011;6344;49.932;8.308;2023-04-24T11:33:05;2.80;;;2.50;;
12556;SDS011;6344;49.932;8.308;2023-04-24T11:35:34;3.53;;;3.30;;
12556;SDS011;6344;49.932;8.308;2023-04-24T11:38:04;3.07;;;2.87;;
12556;SDS011;6344;49.932;8.308;2023-04-24T11:40:32;3.30;;;3.10;;
12556;SDS011;6344;49.932;8.308;2023-04-24T11:42:59;2.13;;;2.03;;
12556;SDS011;6344;49.932;8.308;2023-04-24T11:45:27;1.77;;;1.67;;
12556;SDS011;6344;49.932;8.308;2023-04-24T11:47:55;2.00;;;1.90;;
12556;SDS011;6344;49.932;8.308;2023-04-24T11:50:23;2.30;;;2.20;;
12556;SDS011;6344;49.932;8.308;2023-04-24T11:52:52;3.07;;;2.87;;
12556;SDS011;6344;49.932;8.308;2023-04-24T11:55:22;3.10;;;2.90;;
12556;SDS011;6344;49.932;8.308;2023-04-24T11:57:53;3.17;;;2.97;;
12556;SDS011;6344;49.932;8.308;2023-04-24T12:00:22;3.70;;;3.40;;
12556;SDS011;6344;49.932;8.308;2023-04-24T12:02:50;4.93;;;4.53;;
12556;SDS011;6344;49.932;8.308;2023-04-24T12:05:19;3.63;;;3.33;;
12556;SDS011;6344;49.932;8.308;2023-04-24T12:07:48;4.70;;;4.30;;
12556;SDS011;6344;49.932;8.308;2023-04-24T12:10:19;4.20;;;3.90;;
12556;SDS011;6344;49.932;8.308;2023-04-24T12:12:46;3.50;;;3.20;;
12556;SDS011;6344;49.932;8.308;2023-04-24T12:15:15;3.93;;;3.47;;
12556;SDS011;6344;49.932;8.308;2023-04-24T12:17:43;3.73;;;3.40;;
12556;SDS011;6344;49.932;8.308;2023-04-24T12:20:11;3.93;;;3.70;;
12556;SDS011;6344;49.932;8.308;2023-04-24T12:22:45;4.83;;;4.43;;
12556;SDS011;6344;49.932;8.308;2023-04-24T12:25:14;4.70;;;4.40;;
12556;SDS011;6344;49.932;8.308;2023-04-24T12:27:43;4.07;;;3.77;;
12556;SDS011;6344;49.932;8.308;2023-04-24T12:30:11;4.53;;;4.23;;
12556;SDS011;6344;49.932;8.308;2023-04-24T12:32:45;3.80;;;3.50;;
12556;SDS011;6344;49.932;8.308;2023-04-24T12:35:13;5.00;;;4.60;;
12556;SDS011;6344;49.932;8.308;2023-04-24T12:37:44;4.33;;;3.83;;
12556;SDS011;6344;49.932;8.308;2023-04-24T12:40:12;4.77;;;4.37;;
12556;SDS011;6344;49.932;8.308;2023-04-24T12:42:41;4.47;;;4.07;;
12556;SDS011;6344;49.932;8.308;2023-04-24T12:45:09;5.30;;;4.90;;
12556;SDS011;6344;49.932;8.308;2023-04-24T12:47:37;4.17;;;3.87;;
12556;SDS011;6344;49.932;8.308;2023-04-24T12:50:05;4.67;;;4.27;;
12556;SDS011;6344;49.932;8.308;2023-04-24T12:52:32;8.80;;;5.47;;
12556;SDS011;6344;49.932;8.308;2023-04-24T12:55:00;5.80;;;5.30;;
12556;SDS011;6344;49.932;8.308;2023-04-24T12:57:29;4.87;;;4.10;;
12556;SDS011;6344;49.932;8.308;2023-04-24T12:59:57;5.07;;;4.67;;
12556;SDS011;6344;49.932;8.308;2023-04-24T13:02:24;4.27;;;3.87;;
12556;SDS011;6344;49.932;8.308;2023-04-24T13:04:52;5.30;;;4.80;;
12556;SDS011;6344;49.932;8.308;2023-04-24T13:07:19;4.47;;;4.10;;
12556;SDS011;6344;49.932;8.308;2023-04-24T13:09:47;3.97;;;3.70;;
12556;SDS011;6344;49.932;8.308;2023-04-24T13:12:15;5.13;;;4.73;;
12556;SDS011;6344;49.932;8.308;2023-04-24T13:14:43;6.87;;;4.40;;
12556;SDS011;6344;49.932;8.308;2023-04-24T13:17:10;5.27;;;4.87;;
12556;SDS011;6344;49.932;8.308;2023-04-24T13:19:38;4.20;;;3.90;;
12556;SDS011;6344;49.932;8.308;2023-04-24T13:22:06;4.70;;;4.30;;
12556;SDS011;6344;49.932;8.308;2023-04-24T13:24:33;5.80;;;5.23;;
12556;SDS011;6344;49.932;8.308;2023-04-24T13:27:00;3.97;;;3.67;;
12556;SDS011;6344;49.932;8.308;2023-04-24T13:29:27;5.10;;;4.67;;
12556;SDS011;6344;49.932;8.308;2023-04-24T13:31:55;4.07;;;3.77;;
12556;SDS011;6344;49.932;8.308;2023-04-24T13:34:22;4.40;;;3.80;;
12556;SDS011;6344;49.932;8.308;2023-04-24T13:36:49;5.60;;;4.80;;
12556;SDS011;6344;49.932;8.308;2023-04-24T13:39:16;4.87;;;4.47;;
12556;SDS011;6344;49.932;8.308;2023-04-24T13:41:43;4.80;;;4.40;;
12556;SDS011;6344;49.932;8.308;2023-04-24T13:44:10;5.20;;;4.90;;
12556;SDS011;6344;49.932;8.308;2023-04-24T13:46:36;5.40;;;5.00;;
12556;SDS011;6344;49.932;8.308;2023-04-24T13:49:05;4.90;;;4.50;;
12556;SDS011;6344;49.932;8.308;2023-04-24T13:51:32;4.90;;;4.60;;
12556;SDS011;6344;49.932;8.308;2023-04-24T13:53:59;4.20;;;3.80;;
12556;SDS011;6344;49.932;8.308;2023-04-24T13:56:25;4.70;;;3.90;;
12556;SDS011;6344;49.932;8.308;2023-04-24T13:58:52;7.53;;;4.83;;
12556;SDS011;6344;49.932;8.308;2023-04-24T14:01:19;4.83;;;4.40;;
12556;SDS011;6344;49.932;8.308;2023-04-24T14:03:49;4.63;;;4.33;;
12556;SDS011;6344;49.932;8.308;2023-04-24T14:06:17;4.93;;;4.57;;
12556;SDS011;6344;49.932;8.308;2023-04-24T14:08:44;4.67;;;4.27;;
12556;SDS011;6344;49.932;8.308;2023-04-24T14:11:11;4.67;;;4.30;;
12556;SDS011;6344;49.932;8.308;2023-04-24T14:13:38;5.23;;;4.73;;
12556;SDS011;6344;49.932;8.308;2023-04-24T14:16:06;5.83;;;4.20;;
12556;SDS011;6344;49.932;8.308;2023-04-24T14:18:33;5.57;;;4.40;;
12556;SDS011;6344;49.932;8.308;2023-04-24T14:21:01;7.93;;;5.80;;
12556;SDS011;6344;49.932;8.308;2023-04-24T14:23:29;6.10;;;4.83;;
12556;SDS011;6344;49.932;8.308;2023-04-24T14:25:56;5.53;;;5.13;;
12556;SDS011;6344;49.932;8.308;2023-04-24T14:28:23;4.83;;;4.40;;
12556;SDS011;6344;49.932;8.308;2023-04-24T14:30:51;5.07;;;4.57;;
12556;SDS011;6344;49.932;8.308;2023-04-24T14:33:18;4.03;;;3.63;;
12556;SDS011;6344;49.932;8.308;2023-04-24T14:35:45;4.40;;;4.10;;
12556;SDS011;6344;49.932;8.308;2023-04-24T14:38:12;4.10;;;3.80;;
12556;SDS011;6344;49.932;8.308;2023-04-24T14:40:40;5.37;;;4.97;;
12556;SDS011;6344;49.932;8.308;2023-04-24T14:43:07;5.10;;;4.70;;
12556;SDS011;6344;49.932;8.308;2023-04-24T14:45:36;4.67;;;4.27;;
12556;SDS011;6344;49.932;8.308;2023-04-24T14:48:03;4.87;;;4.47;;
12556;SDS011;6344;49.932;8.308;2023-04-24T14:50:30;5.13;;;4.73;;
12556;SDS011;6344;49.932;8.308;2023-04-24T14:52:56;4.80;;;4.40;;
12556;SDS011;6344;49.932;8.308;2023-04-24T14:55:23;5.20;;;4.73;;
12556;SDS011;6344;49.932;8.308;2023-04-24T14:57:52;5.87;;;5.47;;
12556;SDS011;6344;49.932;8.308;2023-04-24T15:00:19;5.23;;;4.83;;
12556;SDS011;6344;49.932;8.308;2023-04-24T15:02:48;6.20;;;5.00;;
12556;SDS011;6344;49.932;8.308;2023-04-24T15:05:15;4.80;;;4.50;;